Time;durP1;ratioP1;P1;durP2;ratioP2;P2;SDS_P1;SDS_P2;PMS_P1;PMS_P2;Temp;Humidity;BMP_temperature;BMP_pressure;BME280_temperature;BME280_humidity;BME280_pressure;Samples;Min_cycle;Max_cycle;Signal;HPM_P1;HPM_P2
2021/11/01 00:01:06;;;;;;;63.48;35.73;;;;;;;7.17;76.35;100931.87;1785999;80;21029;-59
2021/11/01 00:03:32;;;;;;;68.97;34.85;;;;;;;7.14;76.45;100926.88;1786288;80;21092;-63
2021/11/01 00:06:01;;;;;;;61.77;35.23;;;;;;;7.10;76.61;100925.61;1786275;80;20989;-61
2021/11/01 00:08:29;;;;;;;66.80;36.60;;;;;;;7.09;76.66;100929.28;1783290;80;21468;-64
2021/11/01 00:10:55;;;;;;;66.65;36.63;;;;;;;7.07;76.70;100925.98;1786240;80;21053;-62
2021/11/01 00:13:23;;;;;;;60.73;34.13;;;;;;;7.03;76.78;100923.34;1786286;80;20930;-63
2021/11/01 00:15:50;;;;;;;64.12;35.55;;;;;;;6.98;76.73;100916.71;1786074;79;21792;-60
2021/11/01 00:18:17;;;;;;;63.98;38.15;;;;;;;6.95;76.75;100914.41;1786050;80;20959;-62
2021/11/01 00:20:44;;;;;;;65.00;38.38;;;;;;;6.92;76.73;100908.11;1782896;80;21497;-61
2021/11/01 00:23:10;;;;;;;68.25;37.30;;;;;;;6.91;76.54;100910.44;1785907;80;21571;-61
2021/11/01 00:25:39;;;;;;;72.15;38.15;;;;;;;6.89;76.30;100904.95;1782928;80;21385;-63
2021/11/01 00:28:05;;;;;;;71.47;39.45;;;;;;;6.88;75.96;100906.81;1786207;79;21915;-60
2021/11/01 00:30:32;;;;;;;67.10;37.80;;;;;;;6.88;75.77;100901.99;1786418;80;21041;-61
2021/11/01 00:32:59;;;;;;;71.65;41.65;;;;;;;6.87;75.62;100901.14;1785993;80;20993;-63
2021/11/01 00:35:27;;;;;;;70.28;40.08;;;;;;;6.87;75.38;100902.99;1786044;80;20899;-61
2021/11/01 00:37:54;;;;;;;65.92;36.68;;;;;;;6.83;75.15;100895.36;1786248;80;20962;-63
2021/11/01 00:40:20;;;;;;;72.22;39.10;;;;;;;6.82;74.65;100899.54;1785879;80;21076;-61
2021/11/01 00:42:47;;;;;;;68.35;36.65;;;;;;;6.80;74.27;100899.72;1785929;80;21042;-62
2021/11/01 00:45:14;;;;;;;62.27;39.40;;;;;;;6.76;73.70;100893.60;1782944;79;20907;-61
2021/11/01 00:47:40;;;;;;;80.70;42.40;;;;;;;6.74;73.61;100896.42;1786142;79;21025;-62
2021/11/01 00:50:08;;;;;;;77.15;43.15;;;;;;;6.73;73.30;100889.94;1786040;80;21006;-63
2021/11/01 00:52:34;;;;;;;82.60;44.40;;;;;;;6.70;73.24;100889.81;1786374;80;21112;-62
2021/11/01 00:55:03;;;;;;;77.35;41.02;;;;;;;6.71;73.11;100887.45;1786019;80;21991;-62
2021/11/01 00:57:30;;;;;;;74.70;41.83;;;;;;;6.72;72.88;100880.31;1786254;80;20946;-61
2021/11/01 00:59:58;;;;;;;84.13;43.15;;;;;;;6.70;72.88;100876.98;1786263;80;20994;-63
2021/11/01 01:02:28;;;;;;;80.05;43.55;;;;;;;6.74;72.67;100880.94;1786313;79;22129;-64
2021/11/01 01:04:54;;;;;;;77.17;40.75;;;;;;;6.74;72.21;100872.95;1785476;80;21844;-61
2021/11/01 01:07:21;;;;;;;85.40;43.83;;;;;;;6.67;72.27;100875.52;1755605;80;21539;-60
2021/11/01 01:09:49;;;;;;;76.50;40.52;;;;;;;6.60;72.12;100872.73;1786093;80;20997;-61
2021/11/01 01:12:17;;;;;;;78.10;40.83;;;;;;;6.56;72.23;100873.28;1783704;80;20962;-62
2021/11/01 01:14:53;;;;;;;83.97;41.92;;;;;;;6.49;72.26;100867.83;1783553;80;21134;-62
2021/11/01 01:17:12;;;;;;;72.45;41.95;;;;;;;6.43;72.38;100868.06;1778674;80;21154;-62
2021/11/01 01:20:21;;;;;;;80.35;42.10;;;;;;;6.41;72.27;100870.06;1783504;80;21643;-62
2021/11/01 01:22:19;;;;;;;68.17;38.45;;;;;;;6.40;72.13;100868.91;1759370;80;21029;-61
2021/11/01 01:24:43;;;;;;;73.22;38.05;;;;;;;6.40;71.98;100862.25;1780451;80;21056;-62
2021/11/01 01:27:09;;;;;;;67.65;37.63;;;;;;;6.38;71.60;100855.77;1783605;80;21436;-61
2021/11/01 01:29:38;;;;;;;70.67;37.03;;;;;;;6.37;71.45;100854.62;1783575;80;21532;-61
2021/11/01 01:32:06;;;;;;;70.92;38.25;;;;;;;6.36;71.24;100858.28;1783392;80;21046;-61
2021/11/01 01:34:32;;;;;;;74.85;39.03;;;;;;;6.33;71.25;100852.83;1783641;80;21011;-61
2021/11/01 01:36:59;;;;;;;70.87;38.83;;;;;;;6.30;71.24;100848.68;1783888;80;21612;-62
2021/11/01 01:39:25;;;;;;;70.00;38.28;;;;;;;6.27;71.30;100854.36;1783421;80;21015;-61
2021/11/01 01:41:52;;;;;;;73.65;39.63;;;;;;;6.23;71.43;100850.91;1783593;80;21137;-62
2021/11/01 01:44:19;;;;;;;74.55;39.95;;;;;;;6.18;71.49;100849.27;1783710;80;20860;-61
2021/11/01 01:46:45;;;;;;;71.42;36.33;;;;;;;6.17;71.55;100846.27;1783429;80;21019;-63
2021/11/01 01:49:12;;;;;;;69.95;34.98;;;;;;;6.16;71.44;100843.30;1783386;80;21015;-60
2021/11/01 01:51:40;;;;;;;72.30;37.53;;;;;;;6.14;71.38;100840.30;1779467;80;21130;-62
2021/11/01 01:54:07;;;;;;;62.13;35.40;;;;;;;6.15;71.38;100839.79;1780028;80;21140;-60
2021/11/01 01:56:33;;;;;;;62.35;36.60;;;;;;;6.15;71.49;100842.45;1783921;80;21061;-62
2021/11/01 01:59:14;;;;;;;64.92;34.40;;;;;;;6.16;71.48;100840.64;1783562;80;21021;-61
2021/11/01 02:01:42;;;;;;;63.02;36.23;;;;;;;6.16;71.48;100842.78;1750595;80;21070;-60
2021/11/01 02:04:08;;;;;;;64.37;35.90;;;;;;;6.18;71.90;100841.28;1783546;80;20934;-61
2021/11/01 02:07:12;;;;;;;57.60;32.45;;;;;;;6.20;72.08;100845.42;1784015;80;21044;-61
2021/11/01 02:10:05;;;;;;;57.20;32.00;;;;;;;6.27;72.58;100841.53;1781108;80;20959;-61
2021/11/01 02:12:42;;;;;;;70.67;36.48;;;;;;;6.29;72.69;100845.68;1782121;80;20907;-63
2021/11/01 02:15:19;;;;;;;63.87;35.98;;;;;;;6.29;72.82;100843.02;1782552;80;20939;-61
2021/11/01 02:17:50;;;;;;;67.50;32.98;;;;;;;6.30;73.03;100846.02;1782401;80;20923;-62
2021/11/01 02:20:22;;;;;;;58.85;34.75;;;;;;;6.30;73.18;100842.02;1780025;80;21795;-62
2021/11/01 02:23:13;;;;;;;61.50;34.18;;;;;;;6.33;73.09;100847.98;1779901;80;21117;-62
2021/11/01 02:25:44;;;;;;;58.95;33.63;;;;;;;6.36;72.99;100844.48;1781210;80;21528;-63
2021/11/01 02:28:16;;;;;;;67.80;34.45;;;;;;;6.40;72.50;100847.08;1783726;80;21618;-60
2021/11/01 02:30:44;;;;;;;57.23;30.60;;;;;;;6.36;72.47;100847.14;1782615;80;20931;-63
2021/11/01 02:33:12;;;;;;;52.88;30.97;;;;;;;6.33;72.39;100848.83;1783859;80;21102;-60
2021/11/01 02:35:39;;;;;;;61.80;34.20;;;;;;;6.29;72.82;100843.53;1783707;80;20951;-61
2021/11/01 02:38:06;;;;;;;58.78;33.63;;;;;;;6.25;73.14;100840.37;1783919;80;20958;-63
2021/11/01 02:40:34;;;;;;;60.35;34.23;;;;;;;6.24;73.65;100842.73;1781811;80;21001;-62
2021/11/01 02:43:01;;;;;;;67.32;36.10;;;;;;;6.24;73.66;100839.23;1783524;80;21037;-62
2021/11/01 02:45:28;;;;;;;62.98;35.05;;;;;;;6.21;74.11;100837.74;1783303;80;21112;-62
2021/11/01 02:47:54;;;;;;;66.28;34.98;;;;;;;6.18;74.27;100834.11;1783662;80;20982;-60
2021/11/01 02:50:21;;;;;;;64.58;35.98;;;;;;;6.20;74.50;100833.92;1783753;80;21017;-61
2021/11/01 02:52:47;;;;;;;63.40;35.68;;;;;;;6.21;74.71;100830.27;1783817;80;20911;-59
2021/11/01 02:55:14;;;;;;;58.70;34.35;;;;;;;6.24;75.06;100822.77;1783395;80;20939;-63
2021/11/01 02:57:43;;;;;;;59.73;34.75;;;;;;;6.26;75.32;100826.58;1783661;80;21145;-63
2021/11/01 03:00:10;;;;;;;54.48;32.88;;;;;;;6.23;75.30;100817.11;1783433;80;20899;-60
2021/11/01 03:02:37;;;;;;;64.85;35.98;;;;;;;6.22;75.52;100823.95;1784019;80;20998;-62
2021/11/01 03:05:09;;;;;;;52.60;32.30;;;;;;;6.18;75.64;100823.45;1782260;80;20946;-60
2021/11/01 03:07:37;;;;;;;65.08;37.17;;;;;;;6.17;76.24;100818.31;1783625;80;20991;-63
2021/11/01 03:10:05;;;;;;;62.17;36.13;;;;;;;6.16;76.42;100816.16;1783576;80;21101;-60
2021/11/01 03:12:31;;;;;;;63.45;35.50;;;;;;;6.15;76.68;100813.16;1767961;79;21568;-63
2021/11/01 03:15:03;;;;;;;68.37;38.20;;;;;;;6.14;76.91;100813.68;1767127;81;20948;-62
2021/11/01 03:17:34;;;;;;;58.87;34.65;;;;;;;6.15;77.20;100813.16;1767353;81;21028;-60
2021/11/01 03:20:15;;;;;;;70.80;35.73;;;;;;;6.13;77.46;100813.86;1767022;81;21046;-61
2021/11/01 03:22:46;;;;;;;61.63;34.45;;;;;;;6.12;77.77;100813.52;1764915;81;21599;-63
2021/11/01 03:25:23;;;;;;;59.67;31.17;;;;;;;6.10;77.96;100805.72;1766968;81;21065;-62
2021/11/01 03:27:52;;;;;;;70.80;37.23;;;;;;;6.11;78.15;100805.20;1743259;81;21070;-62
2021/11/01 03:30:20;;;;;;;63.65;35.55;;;;;;;6.13;78.41;100805.88;1743353;81;21002;-64
2021/11/01 03:32:48;;;;;;;59.67;35.63;;;;;;;6.12;78.47;100813.05;1767071;81;21055;-61
2021/11/01 03:35:16;;;;;;;69.07;36.30;;;;;;;6.13;78.41;100806.69;1743904;81;21132;-61
2021/11/01 03:37:44;;;;;;;67.58;36.30;;;;;;;6.17;78.37;100805.84;1767310;81;21046;-62
2021/11/01 03:40:16;;;;;;;58.70;33.85;;;;;;;6.17;78.36;100801.00;1767018;80;21017;-61
2021/11/01 03:42:41;;;;;;;66.17;35.83;;;;;;;6.15;78.40;100802.52;1766592;81;21035;-63
2021/11/01 03:45:10;;;;;;;58.63;32.28;;;;;;;6.13;78.47;100801.88;1767103;81;20940;-64
2021/11/01 03:47:41;;;;;;;61.15;34.75;;;;;;;6.15;78.48;100801.19;1767278;81;21784;-64
2021/11/01 03:50:17;;;;;;;64.15;37.15;;;;;;;6.16;78.47;100801.52;1766559;81;21005;-59
2021/11/01 03:52:36;;;;;;;61.80;37.28;;;;;;;6.17;78.43;100801.86;1763374;81;21026;-61
2021/11/01 03:55:04;;;;;;;64.65;37.33;;;;;;;6.16;78.43;100793.53;1766773;81;21152;-60
2021/11/01 03:57:30;;;;;;;58.08;33.40;;;;;;;6.14;78.40;100804.36;1767114;81;21102;-61
2021/11/01 03:59:57;;;;;;;59.75;35.00;;;;;;;6.14;78.36;100796.89;1764141;81;21126;-63
2021/11/01 04:02:24;;;;;;;59.77;36.08;;;;;;;6.12;78.38;100798.41;1743226;81;21045;-62
2021/11/01 04:04:52;;;;;;;56.63;35.08;;;;;;;6.10;78.39;100791.08;1766752;81;21014;-62
2021/11/01 04:07:19;;;;;;;57.20;34.70;;;;;;;6.12;78.35;100786.91;1762090;81;20903;-61
2021/11/01 04:09:46;;;;;;;57.40;33.70;;;;;;;6.11;78.17;100786.57;1766996;81;20868;-62
2021/11/01 04:12:13;;;;;;;61.65;33.35;;;;;;;6.10;78.20;100784.42;1779800;80;21136;-61
2021/11/01 04:14:46;;;;;;;56.92;34.30;;;;;;;6.11;78.15;100784.75;1785819;80;21010;-62
2021/11/01 04:17:24;;;;;;;56.60;33.02;;;;;;;6.11;78.15;100783.42;1785770;80;20958;-60
2021/11/01 04:19:53;;;;;;;57.98;34.40;;;;;;;6.10;78.09;100781.76;1781206;80;21041;-62
2021/11/01 04:22:15;;;;;;;63.80;36.73;;;;;;;6.10;78.10;100777.77;1778953;80;20950;-60
2021/11/01 04:24:42;;;;;;;69.00;37.90;;;;;;;6.05;78.11;100770.83;1785997;79;21159;-63
2021/11/01 04:27:09;;;;;;;64.17;37.30;;;;;;;6.04;78.36;100769.69;1786043;80;21041;-62
2021/11/01 04:29:35;;;;;;;68.70;38.70;;;;;;;6.01;78.42;100764.20;1785718;80;21559;-61
2021/11/01 04:32:13;;;;;;;61.13;35.33;;;;;;;5.99;78.53;100767.53;1785941;78;21520;-62
2021/11/01 04:34:36;;;;;;;63.00;38.20;;;;;;;5.98;78.66;100755.73;1783961;80;21503;-62
2021/11/01 04:37:02;;;;;;;64.10;33.83;;;;;;;5.97;78.75;100761.57;1786017;80;21955;-63
2021/11/01 04:40:02;;;;;;;63.78;37.15;;;;;;;5.98;78.86;100755.25;1785864;80;21073;-61
2021/11/01 04:42:50;;;;;;;59.40;35.00;;;;;;;5.99;78.96;100749.41;1780152;80;20977;-62
2021/11/01 04:52:55;;;;;;;68.37;37.60;;;;;;;6.03;79.05;100753.38;1778893;80;20946;-62
2021/11/01 04:53:07;;;;;;;57.35;32.48;;;;;;;6.10;79.09;100745.82;1786129;79;21586;-62
2021/11/01 04:55:33;;;;;;;57.27;33.55;;;;;;;6.11;79.12;100750.63;1785134;80;20977;-64
2021/11/01 04:57:59;;;;;;;60.35;35.98;;;;;;;6.13;79.19;100752.63;1786062;78;20911;-59
2021/11/01 05:00:26;;;;;;;59.23;36.00;;;;;;;6.13;79.29;100752.63;1786322;79;20903;-60
2021/11/01 05:03:08;;;;;;;64.00;36.83;;;;;;;6.12;79.25;100749.64;1782804;80;21115;-64
2021/11/01 05:05:21;;;;;;;59.98;35.10;;;;;;;6.12;79.29;100754.95;1777338;80;21093;-62
2021/11/01 05:07:48;;;;;;;60.88;35.70;;;;;;;6.13;79.36;100753.45;1785988;80;20923;-63
2021/11/01 05:10:27;;;;;;;55.73;35.83;;;;;;;6.17;79.33;100753.09;1786404;80;21499;-62
2021/11/01 05:12:43;;;;;;;61.08;36.28;;;;;;;6.21;79.22;100748.55;1777846;80;21028;-63
2021/11/01 05:17:49;;;;;;;60.40;34.58;;;;;;;6.33;78.82;100742.80;1785883;80;20942;-64
2021/11/01 05:25:09;;;;;;;56.85;33.78;;;;;;;6.43;78.38;100746.03;1786078;80;20942;-61
2021/11/01 05:30:10;;;;;;;50.98;29.92;;;;;;;6.48;77.88;100752.98;1785835;79;21493;-63
2021/11/01 05:32:38;;;;;;;52.23;34.03;;;;;;;6.48;77.84;100746.33;1781479;80;20939;-63
2021/11/01 05:35:05;;;;;;;51.90;32.70;;;;;;;6.48;77.72;100747.66;1786303;79;21539;-60
2021/11/01 05:37:34;;;;;;;59.50;33.45;;;;;;;6.54;77.74;100753.58;1782591;80;20966;-62
2021/11/01 05:40:01;;;;;;;60.73;33.78;;;;;;;6.60;77.41;100756.84;1784922;80;21130;-61
2021/11/01 05:42:29;;;;;;;;;;;;;;;6.66;77.47;100761.44;1788116;80;21084;-63
2021/11/01 05:44:56;;;;;;;55.83;31.25;;;;;;;6.76;77.22;100760.36;1786342;80;20123;-60
2021/11/01 05:47:23;;;;;;;57.65;33.05;;;;;;;6.84;76.90;100760.25;1785906;79;20955;-60
2021/11/01 05:49:50;;;;;;;60.25;32.23;;;;;;;6.93;76.66;100763.66;1786114;80;20915;-61
2021/11/01 05:52:27;;;;;;;59.77;32.53;;;;;;;7.01;76.53;100765.72;1786182;79;21137;-59
2021/11/01 05:54:52;;;;;;;55.92;32.98;;;;;;;7.10;75.93;100757.12;1783902;80;20939;-60
2021/11/01 05:57:31;;;;;;;53.17;34.43;;;;;;;7.15;75.65;100757.89;1785839;80;21056;-63
2021/11/01 06:00:06;;;;;;;55.78;33.65;;;;;;;7.17;75.34;100759.88;1779733;80;21758;-63
2021/11/01 06:02:41;;;;;;;57.25;34.60;;;;;;;7.16;75.08;100765.70;1781069;80;21026;-60
2021/11/01 06:05:12;;;;;;;60.63;35.88;;;;;;;7.15;75.11;100761.38;1781097;80;21137;-61
2021/11/01 06:07:43;;;;;;;60.17;35.60;;;;;;;7.23;75.26;100752.47;1784884;78;20979;-63
2021/11/01 06:13:24;;;;;;;49.03;30.27;;;;;;;7.40;74.86;100751.73;1783711;80;20927;-63
2021/11/01 06:15:27;;;;;;;59.18;32.95;;;;;;;7.86;73.91;100756.74;1766456;81;20980;-61
2021/11/01 06:17:52;;;;;;;57.25;32.73;;;;;;;8.28;73.27;100753.41;1766573;81;21187;-60
2021/11/01 06:20:18;;;;;;;55.92;33.30;;;;;;;8.69;72.47;100750.03;1764985;81;21741;-62
2021/11/01 06:22:47;;;;;;;56.83;32.45;;;;;;;9.03;70.84;100755.05;1766236;81;21022;-60
2021/11/01 06:25:16;;;;;;;55.67;34.08;;;;;;;9.25;69.92;100755.76;1765387;81;21059;-61
2021/11/01 06:27:42;;;;;;;58.38;33.20;;;;;;;9.44;68.83;100755.52;1766952;81;21039;-61
2021/11/01 06:49:44;;;;;;;59.38;35.15;;;;;;;9.57;66.74;100758.72;1767235;81;20908;-60
2021/11/01 06:51:42;;;;;;;58.95;35.80;;;;;;;9.12;67.15;100743.14;1764227;81;20896;-63
2021/11/01 07:14:09;;;;;;;;;;;;;;;8.76;69.10;100746.37;1768867;81;20904;-63
2021/11/01 07:15:45;;;;;;;71.55;39.27;;;;;;;9.11;68.35;100751.69;1781662;80;20923;-63
2021/11/01 07:18:14;;;;;;;63.28;38.45;;;;;;;9.29;68.18;100751.14;1780548;80;21507;-63
2021/11/01 08:21:37;;;;;;;68.62;39.65;;;;;;;9.51;68.09;100688.61;1783640;80;20974;-62
2021/11/01 08:29:41;;;;;;;73.70;39.45;;;;;;;9.97;66.60;100694.55;1780888;80;21053;-62
2021/11/01 08:35:21;;;;;;;56.48;36.75;;;;;;;10.02;65.83;100691.24;1781072;80;20989;-59
2021/11/01 08:43:21;;;;;;;63.80;37.73;;;;;;;9.99;65.92;100681.76;1777467;79;21053;-61
2021/11/01 09:04:34;;;;;;;69.32;38.15;;;;;;;9.18;68.59;100658.61;1783457;79;21006;-60
2021/11/01 09:12:37;;;;;;;62.13;35.25;;;;;;;9.54;67.61;100654.25;1779927;80;21103;-62
2021/11/01 09:20:14;;;;;;;58.15;36.83;;;;;;;9.38;66.58;100643.42;1758042;80;20928;-62
2021/11/01 09:25:29;;;;;;;61.25;35.43;;;;;;;9.46;66.75;100640.53;1660266;85;21162;-62
2021/11/01 09:28:04;;;;;;;56.73;35.13;;;;;;;9.50;66.66;100640.16;1725930;80;21592;-61
2021/11/01 09:36:14;;;;;;;60.73;36.53;;;;;;;9.36;66.40;100641.44;1756056;80;21004;-62
2021/11/01 09:43:25;;;;;;;57.17;35.58;;;;;;;9.18;66.95;100635.87;1762054;80;21065;-61
2021/11/01 09:45:57;;;;;;;55.55;33.92;;;;;;;9.16;67.16;100631.22;1759793;80;21034;-59
2021/11/01 09:48:24;;;;;;;61.50;35.70;;;;;;;9.18;67.21;100634.53;1755258;80;21524;-59
2021/11/01 09:50:51;;;;;;;65.00;36.53;;;;;;;9.20;67.11;100631.97;1763318;80;21835;-60
2021/11/01 09:53:26;;;;;;;54.85;35.90;;;;;;;9.19;67.27;100624.97;1757048;80;21041;-63
2021/11/01 10:01:16;;;;;;;59.85;35.70;;;;;;;8.94;68.37;100612.14;1761227;80;21026;-62
2021/11/01 10:03:46;;;;;;;61.92;36.55;;;;;;;8.92;68.69;100603.51;1759664;80;21109;-63
2021/11/01 10:06:20;;;;;;;58.95;36.63;;;;;;;8.97;68.46;100598.08;1760570;80;21569;-60
2021/11/01 10:08:59;;;;;;;53.90;33.40;;;;;;;8.86;68.69;100598.97;1763051;80;22632;-61
2021/11/01 10:11:30;;;;;;;68.87;37.38;;;;;;;8.83;69.01;100589.17;1752937;80;20999;-60
2021/11/01 10:14:00;;;;;;;57.30;35.78;;;;;;;8.84;69.07;100593.51;1764278;80;21591;-59
2021/11/01 10:19:35;;;;;;;64.80;36.73;;;;;;;8.93;68.94;100592.29;1766587;81;20971;-61
2021/11/01 10:22:06;;;;;;;56.63;32.93;;;;;;;9.04;68.49;100593.54;1764699;81;21469;-62
2021/11/01 10:24:40;;;;;;;55.90;35.20;;;;;;;9.07;68.22;100588.63;1762200;81;21514;-60
2021/11/01 10:27:15;;;;;;;52.00;30.05;;;;;;;9.01;68.11;100587.27;1766786;81;21828;-60
2021/11/01 10:29:58;;;;;;;63.00;34.50;;;;;;;8.97;68.29;100585.52;1766942;81;21117;-60
2021/11/01 10:32:38;;;;;;;48.52;30.30;;;;;;;8.99;68.30;100587.98;1759945;81;21007;-60
2021/11/01 10:35:36;;;;;;;49.53;30.45;;;;;;;9.04;68.25;100578.83;1752464;81;21070;-60
2021/11/01 11:11:28;;;;;;;50.20;28.32;;;;;;;8.99;69.96;100560.73;1763605;81;21152;-60
2021/11/01 11:13:50;;;;;;;48.28;27.32;;;;;;;8.97;70.37;100544.07;1764562;79;21002;-59
2021/11/01 11:16:38;;;;;;;45.38;27.35;;;;;;;9.04;70.55;100540.05;1766574;81;20904;-60
2021/11/01 11:19:10;;;;;;;50.10;26.23;;;;;;;9.07;70.67;100548.52;1761394;81;20944;-60
2021/11/01 11:22:01;;;;;;;40.92;24.15;;;;;;;8.95;70.98;100543.44;1763296;81;21490;-60
2021/11/01 11:37:43;;;;;;;53.98;29.02;;;;;;;8.52;72.33;100532.53;1763963;81;22039;-61
2021/11/01 11:40:08;;;;;;;52.73;27.45;;;;;;;8.54;72.47;100523.00;1759648;81;20935;-60
2021/11/01 11:42:54;;;;;;;52.73;27.13;;;;;;;8.58;72.40;100527.74;1756851;79;20990;-62
2021/11/01 11:50:28;;;;;;;55.75;28.40;;;;;;;8.92;71.57;100515.27;1766797;81;21857;-62
2021/11/01 11:52:58;;;;;;;57.80;29.07;;;;;;;8.94;71.32;100507.05;1756549;81;21011;-60
2021/11/01 11:55:26;;;;;;;49.77;26.17;;;;;;;8.90;71.20;100515.97;1717780;81;20940;-58
2021/11/01 11:57:58;;;;;;;56.65;27.40;;;;;;;8.87;71.31;100515.05;1765757;81;20916;-60
2021/11/01 12:00:28;;;;;;;51.42;25.80;;;;;;;8.84;71.22;100516.79;1765639;81;21503;-61
2021/11/01 12:02:55;;;;;;;44.50;26.00;;;;;;;8.79;71.40;100527.78;1764427;81;21096;-61
2021/11/01 12:05:40;;;;;;;47.85;25.92;;;;;;;8.83;71.42;100518.33;1766667;81;20967;-60
2021/11/01 12:08:34;;;;;;;50.50;27.73;;;;;;;8.85;71.36;100519.78;1765202;81;21558;-60
2021/11/01 12:18:54;;;;;;;52.38;27.70;;;;;;;8.71;71.68;100506.08;1767258;79;21030;-62
2021/11/01 12:21:22;;;;;;;47.17;27.75;;;;;;;8.73;71.81;100502.18;1763701;81;20990;-59
2021/11/01 12:23:49;;;;;;;46.35;27.30;;;;;;;8.74;71.85;100503.00;1765775;81;20963;-62
2021/11/01 12:26:20;;;;;;;46.92;25.65;;;;;;;8.72;71.97;100493.03;1766886;81;21410;-60
2021/11/01 12:28:58;;;;;;;59.73;28.90;;;;;;;8.71;72.06;100495.38;1766943;81;21089;-60
2021/11/01 12:31:27;;;;;;;52.48;28.87;;;;;;;8.73;72.13;100488.81;1766020;81;21529;-62
2021/11/01 12:34:03;;;;;;;54.83;29.67;;;;;;;8.75;72.01;100502.79;1767541;81;21501;-60
2021/11/01 12:36:35;;;;;;;49.30;27.07;;;;;;;8.69;72.02;100486.23;1766481;81;21053;-62
2021/11/01 12:39:12;;;;;;;48.80;27.10;;;;;;;8.67;72.12;100496.31;1766097;81;20955;-59
2021/11/01 12:44:52;;;;;;;49.35;28.20;;;;;;;8.70;72.03;100475.86;1766029;81;20880;-61
2021/11/01 12:57:29;;;;;;;52.78;28.75;;;;;;;8.88;71.71;100486.48;1777610;80;21153;-62
2021/11/01 12:59:56;;;;;;;52.20;27.00;;;;;;;8.88;71.52;100465.91;1777400;80;20986;-60
2021/11/01 13:02:30;;;;;;;46.05;26.33;;;;;;;8.91;71.43;100467.35;1771689;79;21018;-62
2021/11/01 13:05:01;;;;;;;51.95;26.25;;;;;;;8.95;71.36;100465.89;1777391;80;21108;-62
2021/11/01 13:07:44;;;;;;;52.23;26.10;;;;;;;8.97;71.20;100466.53;1764314;81;23157;-61
2021/11/01 13:18:12;;;;;;;50.17;26.07;;;;;;;8.91;71.37;100466.83;1784391;80;21022;-59
2021/11/01 13:20:48;;;;;;;56.48;29.48;;;;;;;8.93;71.53;100458.08;1783982;78;21772;-64
2021/11/01 13:23:15;;;;;;;67.90;33.50;;;;;;;8.98;71.47;100457.98;1776849;79;21093;-61
2021/11/01 13:28:38;;;;;;;55.05;27.10;;;;;;;8.97;71.49;100462.52;1786014;80;21496;-60
2021/11/01 13:36:38;;;;;;;54.90;28.50;;;;;;;8.93;71.70;100462.09;1786340;80;21113;-61
2021/11/01 13:39:08;;;;;;;53.52;26.93;;;;;;;8.92;71.76;100459.12;1785018;80;21054;-60
2021/11/01 13:41:34;;;;;;;49.55;25.35;;;;;;;8.91;71.84;100462.81;1783989;79;20926;-60
2021/11/01 13:44:21;;;;;;;51.73;25.88;;;;;;;8.89;71.91;100456.87;1785805;80;20981;-59
2021/11/01 13:47:01;;;;;;;46.85;26.35;;;;;;;8.91;71.96;100453.98;1784741;80;21788;-61
2021/11/01 13:49:31;;;;;;;58.58;26.00;;;;;;;8.90;71.96;100454.48;1780408;80;21436;-61
2021/11/01 13:55:00;;;;;;;49.58;28.40;;;;;;;8.84;72.17;100448.62;1784286;80;21559;-60
2021/11/01 13:57:23;;;;;;;47.73;29.05;;;;;;;8.85;72.30;100456.12;1785595;80;21532;-64
2021/11/01 13:59:59;;;;;;;59.27;32.23;;;;;;;8.86;72.42;100455.09;1786089;80;21064;-61
2021/11/01 14:13:23;;;;;;;62.27;29.85;;;;;;;8.88;72.67;100453.06;1784039;80;20962;-59
2021/11/01 14:16:14;;;;;;;65.37;31.50;;;;;;;8.91;72.80;100449.45;1784487;80;21002;-60
2021/11/01 14:34:47;;;;;;;49.38;26.77;;;;;;;8.93;73.16;100434.54;1782311;80;21524;-61
2021/11/01 14:58:47;;;;;;;46.37;26.93;;;;;;;8.38;75.45;100411.42;1786212;80;21555;-60
2021/11/01 15:01:26;;;;;;;41.20;24.87;;;;;;;8.35;75.51;100411.83;1779415;80;21065;-61
2021/11/01 15:16:42;;;;;;;51.10;27.90;;;;;;;8.36;75.41;100403.30;1785161;80;20955;-61
2021/11/01 15:40:11;;;;;;;57.62;33.38;;;;;;;8.24;75.34;100405.24;1786021;80;21528;-61
2021/11/01 16:20:26;;;;;;;51.58;31.33;;;;;;;8.04;75.15;100377.66;1765560;81;20975;-62
2021/11/01 16:25:27;;;;;;;59.18;31.70;;;;;;;8.00;75.23;100372.41;1706250;81;21175;-58
2021/11/01 16:27:54;;;;;;;58.40;32.83;;;;;;;7.97;75.34;100373.63;1766726;81;21076;-61
2021/11/01 16:30:23;;;;;;;54.75;30.97;;;;;;;7.95;75.35;100366.83;1766825;81;21003;-60
2021/11/01 16:32:54;;;;;;;49.33;28.17;;;;;;;7.96;75.43;100370.63;1761489;81;21033;-61
2021/11/01 16:35:24;;;;;;;54.83;31.97;;;;;;;8.01;75.33;100364.69;1763803;81;21426;-62
2021/11/01 16:40:25;;;;;;;55.60;31.52;;;;;;;8.03;75.04;100358.13;1766551;81;21489;-63
2021/11/01 16:42:52;;;;;;;55.90;32.45;;;;;;;7.99;75.02;100356.88;1765306;81;21000;-62
2021/11/01 16:45:26;;;;;;;55.58;31.82;;;;;;;7.96;75.12;100358.63;1766673;81;20947;-61
2021/11/01 16:47:52;;;;;;;62.85;34.13;;;;;;;7.98;75.04;100359.75;1766197;81;20860;-61
2021/11/01 16:50:20;;;;;;;68.67;37.10;;;;;;;7.99;74.96;100362.74;1766785;81;21139;-59
2021/11/01 16:52:48;;;;;;;65.78;37.33;;;;;;;7.98;74.93;100358.41;1766537;81;21074;-60
2021/11/01 16:55:27;;;;;;;69.22;37.85;;;;;;;7.97;74.85;100362.94;1767065;81;21062;-60
2021/11/01 16:57:59;;;;;;;68.40;38.95;;;;;;;7.95;74.84;100354.81;1763984;81;21101;-60
2021/11/01 17:00:36;;;;;;;72.35;38.90;;;;;;;7.91;74.82;100348.27;1764862;81;20995;-62
2021/11/01 17:03:19;;;;;;;71.82;40.52;;;;;;;7.87;74.92;100350.48;1766508;81;21052;-60
2021/11/01 18:42:00;;;;;;;76.60;40.23;;;;;;;8.27;75.18;100277.66;1782966;79;20986;-61
2021/11/01 18:52:10;;;;;;;84.40;42.20;;;;;;;8.35;75.35;100269.45;1775883;80;21394;-64
2021/11/01 18:54:41;;;;;;;83.22;41.55;;;;;;;8.37;75.42;100275.39;1776679;80;21006;-62
2021/11/01 18:57:12;;;;;;;77.25;41.50;;;;;;;8.38;75.44;100264.50;1780573;80;21061;-61
2021/11/01 18:59:42;;;;;;;80.97;41.63;;;;;;;8.39;75.45;100258.14;1785580;80;21057;-60
2021/11/01 19:02:34;;;;;;;75.92;39.10;;;;;;;8.40;75.49;100265.62;1782631;80;21029;-63
2021/11/01 19:04:59;;;;;;;75.25;40.90;;;;;;;8.40;75.56;100273.12;1754883;80;21137;-61
2021/11/01 19:07:39;;;;;;;70.85;40.03;;;;;;;8.41;75.62;100272.62;1781031;80;21007;-62
2021/11/01 19:10:12;;;;;;;76.47;40.90;;;;;;;8.44;75.74;100268.73;1784610;80;20997;-61
2021/11/01 20:05:46;;;;;;;79.72;43.38;;;;;;;8.72;75.24;100260.50;1786130;80;21013;-61
2021/11/01 20:12:11;;;;;;;75.15;43.10;;;;;;;8.83;74.71;100276.41;1785734;80;20962;-59
2021/11/01 21:25:02;;;;;;;95.85;49.18;;;;;;;8.55;73.03;100186.13;1762005;81;21002;-61
2021/11/01 21:27:21;;;;;;;94.58;48.33;;;;;;;8.51;73.28;100183.55;1760197;80;21073;-61
2021/11/01 21:29:48;;;;;;;93.30;47.83;;;;;;;8.45;73.51;100184.40;1758861;81;21822;-60
2021/11/01 21:32:15;;;;;;;89.20;44.33;;;;;;;8.45;73.65;100182.22;1761037;79;20944;-60
2021/11/01 21:34:53;;;;;;;90.90;44.77;;;;;;;8.44;73.67;100181.41;1760152;81;21122;-61
2021/11/01 21:37:11;;;;;;;;;;;;;;;8.46;73.69;100179.34;1763856;81;21007;-60
2021/11/01 21:39:39;;;;;;;87.63;43.47;;;;;;;8.49;73.74;100174.10;1763506;80;20650;-58
2021/11/01 21:42:06;;;;;;;74.47;41.85;;;;;;;8.47;73.85;100174.31;1761986;81;23250;-59
2021/11/01 21:44:38;;;;;;;79.77;44.20;;;;;;;8.48;74.03;100172.45;1755706;81;20900;-62
2021/11/01 21:47:05;;;;;;;78.72;40.67;;;;;;;8.49;74.19;100172.77;1761763;81;21086;-60
2021/11/01 21:49:32;;;;;;;90.22;46.92;;;;;;;8.48;74.69;100173.30;1762375;80;20903;-63
2021/11/01 21:52:01;;;;;;;88.12;45.75;;;;;;;8.44;74.78;100171.22;1762577;80;20943;-62
2021/11/01 21:54:31;;;;;;;92.97;47.13;;;;;;;8.41;75.28;100163.91;1762559;80;21090;-61
2021/11/01 21:57:04;;;;;;;85.30;47.20;;;;;;;8.39;76.10;100167.31;1763367;81;20994;-62
2021/11/01 22:18:50;;;;;;;94.17;49.03;;;;;;;8.13;77.08;100141.47;1766187;80;21063;-62
2021/11/01 22:21:13;;;;;;;93.20;48.75;;;;;;;8.13;76.93;100137.45;1762960;81;21045;-62